Terminal Aerodrome Forecast
Issued by NWS Topeka, KS

Home | Current Version | Previous Version | Text Only | Print | Product List | Glossary On
Versions: 1 2 3 4 5 6 7 8 9 10 11 12 13 14
197
FTUS43 KTOP 170524
TAFTOP
TAF
KTOP 170524Z 1706/1806 16005KT P6SM SCT080 OVC200
     FM170900 17006KT P6SM VCSH BKN035 OVC050
     FM171200 19005KT P6SM VCSH OVC020
     FM171800 25004KT P6SM BKN030=

USA.gov is the U.S. government's official web portal to all federal, state and local government web resources and services.